Rong Lin Wan — 9V3639 — position and weather

sailwx.info

Track history (hours):
 
Tides and Currents Weather Stations Pressure Air Temp Water Temp Dewpoint Dewpoint Depression Visibility Wind Speed Wind Dir Waves Ship Positions

Rong Lin Wan

Last reported at 2018-May-05 15:47 UTC. Time now 2018-May-25 09:09 UTC.
Position N 20°06' E 067°13'.
Warning: this ship's position is 19 days out of date.

Length 249 m; draft 12.1 m.

Type: Tanker. MMSI: 563026200.

Date/timePositionNaut miles runAvg speedWind from/ knotsBaromVisibWave heightAir tempDewpointWater temp
2018-May-05 15:47N 20°06' E 067°13'1113.2
2018-May-05 14:55N 19°58' E 067°20'713.2
2018-May-05 14:24N 19°52' E 067°25'4413.0
2018-May-05 11:00N 19°18' E 067°55'1113.2
2018-May-05 10:11N 19°10' E 068°02'413.2
2018-May-05 09:54N 19°07' E 068°05'513.2
2018-May-05 09:31N 19°03' E 068°08'713.3
2018-May-05 08:58N 18°58' E 068°13'713.1
2018-May-05 08:27N 18°52' E 068°18'613.0
2018-May-05 08:01N 18°48' E 068°22'1013.0
2018-May-05 07:15N 18°41' E 068°29'312.9
2018-May-05 07:01N 18°38' E 068°31'712.7
2018-May-05 06:28N 18°33' E 068°35'912.7
2018-May-05 05:47N 18°26' E 068°41'412.6
2018-May-05 05:27N 18°23' E 068°43'612.6
2018-May-05 04:59N 18°18' E 068°47'612.6
2018-May-05 04:30N 18°13' E 068°51'612.5
2018-May-05 04:01N 18°09' E 068°56'1412.6
2018-May-05 02:55N 17°58' E 069°05'812.5
2018-May-05 02:16N 17°52' E 069°11'412.5
2018-May-05 01:56N 17°49' E 069°14'1512.6
2018-May-05 00:44N 17°37' E 069°24'3813.0
2018-May-04 21:51N 17°09' E 069°50'513.2
2018-May-04 21:30N 17°06' E 069°53'613.1
2018-May-04 21:01N 17°01' E 069°57'713.1
2018-May-04 20:30N 16°56' E 070°02'713.3
2018-May-04 20:01N 16°51' E 070°06'713.3
2018-May-04 19:30N 16°46' E 070°11'713.3
2018-May-04 18:57N 16°40' E 070°16'713.4
2018-May-04 18:25N 16°35' E 070°21'513.4
2018-May-04 18:00N 16°31' E 070°25'713.5
2018-May-04 17:30N 16°26' E 070°30'1513.4
2018-May-04 16:25N 16°15' E 070°40'1613.3
2018-May-04 15:11N 16°03' E 070°51'213.2
2018-May-04 15:00N 16°01' E 070°53'1413.4
2018-May-04 13:59N 15°51' E 071°03'613.2
2018-May-04 13:30N 15°46' E 071°07'713.2
2018-May-04 13:00N 15°42' E 071°12'713.3
2018-May-04 12:27N 15°36' E 071°17'613.3
2018-May-04 12:00N 15°32' E 071°21'713.4
2018-May-04 11:29N 15°26' E 071°26'  
2018-Apr-27 02:59N 01°18' E 103°20'511.1
2018-Apr-27 02:30N 01°15' E 103°24'712.3
2018-Apr-27 01:56N 01°13' E 103°31'511.0
2018-Apr-27 01:30N 01°12' E 103°35'510.2
2018-Apr-27 00:59N 01°10' E 103°40'5 9.7
2018-Apr-27 00:29N 01°09' E 103°45'612.5
2018-Apr-27 00:00N 01°12' E 103°51'4 7.3
2018-Apr-26 23:30N 01°13' E 103°54'3 5.0
2018-Apr-26 22:59N 01°15' E 103°56'2 4.3
2018-Apr-26 22:30N 01°17' E 103°55'0 0.0
2018-Apr-26 21:52N 01°17' E 103°55'0 0.0
2018-Apr-26 21:29N 01°17' E 103°55'0 0.0
2018-Apr-26 20:58N 01°17' E 103°55'0 0.0
2018-Apr-26 20:26N 01°17' E 103°55'0 0.0
2018-Apr-26 19:56N 01°17' E 103°55'0 0.0
2018-Apr-26 19:29N 01°17' E 103°55'0 0.0
2018-Apr-26 18:59N 01°17' E 103°55'0 0.0
2018-Apr-26 18:17N 01°17' E 103°55'0 0.0
2018-Apr-26 17:56N 01°17' E 103°55'0 0.0
2018-Apr-26 17:20N 01°17' E 103°55'0 0.0
2018-Apr-26 16:59N 01°17' E 103°55'0 0.0
2018-Apr-26 16:20N 01°17' E 103°55'0 0.0
2018-Apr-26 15:53N 01°17' E 103°55'0 0.0
2018-Apr-26 15:23N 01°17' E 103°55'0 0.0
2018-Apr-26 14:53N 01°17' E 103°55'0 0.0
2018-Apr-26 14:26N 01°17' E 103°55'0 0.0
2018-Apr-26 13:52N 01°17' E 103°55'0 0.0
2018-Apr-26 13:28N 01°17' E 103°55'0 0.0
2018-Apr-26 12:53N 01°17' E 103°55'0 0.0
2018-Apr-26 12:29N 01°17' E 103°55'0 0.0
2018-Apr-26 11:41N 01°17' E 103°55'0 0.0
2018-Apr-26 11:28N 01°17' E 103°55'0 0.1
2018-Apr-26 10:59N 01°17' E 103°55'0 0.1
2018-Apr-26 10:29N 01°17' E 103°55'0 0.7
2018-Apr-26 09:59N 01°16' E 103°55'2 3.5
2018-Apr-26 09:28N 01°15' E 103°56'510.2
2018-Apr-26 09:00N 01°13' E 103°52'4 8.3
2018-Apr-26 08:30N 01°12' E 103°48'0 0.3
2018-Apr-26 07:50N 01°12' E 103°48'0 0.0
2018-Apr-26 07:29N 01°12' E 103°48'0 0.0
2018-Apr-26 06:56N 01°12' E 103°48'0 0.0
2018-Apr-26 06:23N 01°12' E 103°48'0 0.0
2018-Apr-26 05:55N 01°12' E 103°48'0 0.0
2018-Apr-26 05:28N 01°12' E 103°48'0 0.0
2018-Apr-26 04:35N 01°12' E 103°48'0 0.0
2018-Apr-26 04:22N 01°12' E 103°48'0 0.0
2018-Apr-26 03:55N 01°12' E 103°48'0 0.0
2018-Apr-26 03:07N 01°12' E 103°48'0 0.0
2018-Apr-26 02:53N 01°12' E 103°48'0 0.0
2018-Apr-26 02:20N 01°12' E 103°48'0 0.0
2018-Apr-26 01:58N 01°12' E 103°48'0 0.0
2018-Apr-26 01:22N 01°12' E 103°48'0 0.0
2018-Apr-26 00:01N 01°12' E 103°48'0 0.0
2018-Apr-25 23:55N 01°12' E 103°48'0 0.0
2018-Apr-25 23:10N 01°12' E 103°48'0 0.0
2018-Apr-25 22:52N 01°12' E 103°48'0 0.0
2018-Apr-25 22:13N 01°12' E 103°48'0 0.0
2018-Apr-25 21:58N 01°12' E 103°48'0 0.0
2018-Apr-25 21:25N 01°12' E 103°48'0 0.0
2018-Apr-25 20:55N 01°12' E 103°48'0 0.0
2018-Apr-25 20:25N 01°12' E 103°48'0 0.0
2018-Apr-25 19:43N 01°12' E 103°48'0 0.0
2018-Apr-25 19:25N 01°12' E 103°48'0 0.0
2018-Apr-25 18:52N 01°12' E 103°48'0 0.0
2018-Apr-25 18:28N 01°12' E 103°48'0 0.0
2018-Apr-25 17:22N 01°12' E 103°48'0 0.0
2018-Apr-25 16:58N 01°12' E 103°48'0 0.0
2018-Apr-25 16:23N 01°12' E 103°48'0 0.5
2018-Apr-25 16:00N 01°12' E 103°48'  
Track history (hours):
 
Tides and Currents Weather Stations Pressure Air Temp Water Temp Dewpoint Dewpoint Depression Visibility Wind Speed Wind Dir Waves Ship Positions

Rong Lin Wan

Last reported at 2018-May-05 15:47 UTC. Time now 2018-May-25 09:09 UTC.
Position N 20°06' E 067°13'.
Warning: this ship's position is 19 days out of date.

Length 249 m; draft 12.1 m.

Type: Tanker. MMSI: 563026200.

Date/timePositionNaut miles runAvg speedWind from/ knotsBaromVisibWave heightAir tempDewpointWater temp
2018-May-05 15:47N 20°06' E 067°13'1113.2
2018-May-05 14:55N 19°58' E 067°20'713.2
2018-May-05 14:24N 19°52' E 067°25'4413.0
2018-May-05 11:00N 19°18' E 067°55'1113.2
2018-May-05 10:11N 19°10' E 068°02'413.2
2018-May-05 09:54N 19°07' E 068°05'513.2
2018-May-05 09:31N 19°03' E 068°08'713.3
2018-May-05 08:58N 18°58' E 068°13'713.1
2018-May-05 08:27N 18°52' E 068°18'613.0
2018-May-05 08:01N 18°48' E 068°22'1013.0
2018-May-05 07:15N 18°41' E 068°29'312.9
2018-May-05 07:01N 18°38' E 068°31'712.7
2018-May-05 06:28N 18°33' E 068°35'912.7
2018-May-05 05:47N 18°26' E 068°41'412.6
2018-May-05 05:27N 18°23' E 068°43'612.6
2018-May-05 04:59N 18°18' E 068°47'612.6
2018-May-05 04:30N 18°13' E 068°51'612.5
2018-May-05 04:01N 18°09' E 068°56'1412.6
2018-May-05 02:55N 17°58' E 069°05'812.5
2018-May-05 02:16N 17°52' E 069°11'412.5
2018-May-05 01:56N 17°49' E 069°14'1512.6
2018-May-05 00:44N 17°37' E 069°24'3813.0
2018-May-04 21:51N 17°09' E 069°50'513.2
2018-May-04 21:30N 17°06' E 069°53'613.1
2018-May-04 21:01N 17°01' E 069°57'713.1
2018-May-04 20:30N 16°56' E 070°02'713.3
2018-May-04 20:01N 16°51' E 070°06'713.3
2018-May-04 19:30N 16°46' E 070°11'713.3
2018-May-04 18:57N 16°40' E 070°16'713.4
2018-May-04 18:25N 16°35' E 070°21'513.4
2018-May-04 18:00N 16°31' E 070°25'713.5
2018-May-04 17:30N 16°26' E 070°30'1513.4
2018-May-04 16:25N 16°15' E 070°40'1613.3
2018-May-04 15:11N 16°03' E 070°51'213.2
2018-May-04 15:00N 16°01' E 070°53'1413.4
2018-May-04 13:59N 15°51' E 071°03'613.2
2018-May-04 13:30N 15°46' E 071°07'713.2
2018-May-04 13:00N 15°42' E 071°12'713.3
2018-May-04 12:27N 15°36' E 071°17'613.3
2018-May-04 12:00N 15°32' E 071°21'713.4
2018-May-04 11:29N 15°26' E 071°26'  
2018-Apr-27 02:59N 01°18' E 103°20'511.1
2018-Apr-27 02:30N 01°15' E 103°24'712.3
2018-Apr-27 01:56N 01°13' E 103°31'511.0
2018-Apr-27 01:30N 01°12' E 103°35'510.2
2018-Apr-27 00:59N 01°10' E 103°40'5 9.7
2018-Apr-27 00:29N 01°09' E 103°45'612.5
2018-Apr-27 00:00N 01°12' E 103°51'4 7.3
2018-Apr-26 23:30N 01°13' E 103°54'3 5.0
2018-Apr-26 22:59N 01°15' E 103°56'2 4.3
2018-Apr-26 22:30N 01°17' E 103°55'0 0.0
2018-Apr-26 21:52N 01°17' E 103°55'0 0.0
2018-Apr-26 21:29N 01°17' E 103°55'0 0.0
2018-Apr-26 20:58N 01°17' E 103°55'0 0.0
2018-Apr-26 20:26N 01°17' E 103°55'0 0.0
2018-Apr-26 19:56N 01°17' E 103°55'0 0.0
2018-Apr-26 19:29N 01°17' E 103°55'0 0.0
2018-Apr-26 18:59N 01°17' E 103°55'0 0.0
2018-Apr-26 18:17N 01°17' E 103°55'0 0.0
2018-Apr-26 17:56N 01°17' E 103°55'0 0.0
2018-Apr-26 17:20N 01°17' E 103°55'0 0.0
2018-Apr-26 16:59N 01°17' E 103°55'0 0.0
2018-Apr-26 16:20N 01°17' E 103°55'0 0.0
2018-Apr-26 15:53N 01°17' E 103°55'0 0.0
2018-Apr-26 15:23N 01°17' E 103°55'0 0.0
2018-Apr-26 14:53N 01°17' E 103°55'0 0.0
2018-Apr-26 14:26N 01°17' E 103°55'0 0.0
2018-Apr-26 13:52N 01°17' E 103°55'0 0.0
2018-Apr-26 13:28N 01°17' E 103°55'0 0.0
2018-Apr-26 12:53N 01°17' E 103°55'0 0.0
2018-Apr-26 12:29N 01°17' E 103°55'0 0.0
2018-Apr-26 11:41N 01°17' E 103°55'0 0.0
2018-Apr-26 11:28N 01°17' E 103°55'0 0.1
2018-Apr-26 10:59N 01°17' E 103°55'0 0.1
2018-Apr-26 10:29N 01°17' E 103°55'0 0.7
2018-Apr-26 09:59N 01°16' E 103°55'2 3.5
2018-Apr-26 09:28N 01°15' E 103°56'510.2
2018-Apr-26 09:00N 01°13' E 103°52'4 8.3
2018-Apr-26 08:30N 01°12' E 103°48'0 0.3
2018-Apr-26 07:50N 01°12' E 103°48'0 0.0
2018-Apr-26 07:29N 01°12' E 103°48'0 0.0
2018-Apr-26 06:56N 01°12' E 103°48'0 0.0
2018-Apr-26 06:23N 01°12' E 103°48'0 0.0
2018-Apr-26 05:55N 01°12' E 103°48'0 0.0
2018-Apr-26 05:28N 01°12' E 103°48'0 0.0
2018-Apr-26 04:35N 01°12' E 103°48'0 0.0
2018-Apr-26 04:22N 01°12' E 103°48'0 0.0
2018-Apr-26 03:55N 01°12' E 103°48'0 0.0
2018-Apr-26 03:07N 01°12' E 103°48'0 0.0
2018-Apr-26 02:53N 01°12' E 103°48'0 0.0
2018-Apr-26 02:20N 01°12' E 103°48'0 0.0
2018-Apr-26 01:58N 01°12' E 103°48'0 0.0
2018-Apr-26 01:22N 01°12' E 103°48'0 0.0
2018-Apr-26 00:01N 01°12' E 103°48'0 0.0
2018-Apr-25 23:55N 01°12' E 103°48'0 0.0
2018-Apr-25 23:10N 01°12' E 103°48'0 0.0
2018-Apr-25 22:52N 01°12' E 103°48'0 0.0
2018-Apr-25 22:13N 01°12' E 103°48'0 0.0
2018-Apr-25 21:58N 01°12' E 103°48'0 0.0
2018-Apr-25 21:25N 01°12' E 103°48'0 0.0
2018-Apr-25 20:55N 01°12' E 103°48'0 0.0
2018-Apr-25 20:25N 01°12' E 103°48'0 0.0
2018-Apr-25 19:43N 01°12' E 103°48'0 0.0
2018-Apr-25 19:25N 01°12' E 103°48'0 0.0
2018-Apr-25 18:52N 01°12' E 103°48'0 0.0
2018-Apr-25 18:28N 01°12' E 103°48'0 0.0
2018-Apr-25 17:22N 01°12' E 103°48'0 0.0
2018-Apr-25 16:58N 01°12' E 103°48'0 0.0
2018-Apr-25 16:23N 01°12' E 103°48'0 0.5
2018-Apr-25 16:00N 01°12' E 103°48'  

Dump ship's entire track history